createdAt,value
2019-06-26T00:02:11.461Z,56.65
2019-06-26T00:04:40.084Z,56.85
2019-06-26T00:07:08.485Z,56.86
2019-06-26T00:09:37.050Z,57.26
2019-06-26T00:12:05.480Z,57.57
2019-06-26T00:14:33.880Z,57.89
2019-06-26T00:17:02.282Z,58.07
2019-06-26T00:19:30.710Z,58.31
2019-06-26T00:21:59.116Z,58.05
2019-06-26T00:24:27.508Z,58.02
2019-06-26T00:26:55.930Z,58.36
2019-06-26T00:29:24.344Z,59.00
2019-06-26T00:31:52.744Z,59.72
2019-06-26T00:34:21.177Z,60.24
2019-06-26T00:36:49.574Z,60.22
2019-06-26T00:39:18.248Z,60.37
2019-06-26T00:41:46.646Z,59.77
2019-06-26T00:44:15.050Z,60.04
2019-06-26T00:46:43.447Z,60.43
2019-06-26T00:49:11.984Z,60.41
2019-06-26T00:51:40.553Z,60.53
2019-06-26T00:54:08.972Z,60.49
2019-06-26T00:56:37.474Z,60.34
2019-06-26T00:59:05.874Z,60.28
2019-06-26T01:01:34.271Z,60.16
2019-06-26T01:04:04.365Z,60.36
2019-06-26T01:06:44.578Z,60.36
2019-06-26T01:09:15.928Z,60.47
2019-06-26T01:11:44.486Z,60.43
2019-06-26T01:14:13.023Z,60.36
2019-06-26T01:16:41.448Z,60.41
2019-06-26T01:19:10.013Z,60.86
2019-06-26T01:21:38.473Z,61.19
2019-06-26T01:24:07.122Z,61.20
2019-06-26T01:26:35.923Z,61.61
2019-06-26T01:29:04.532Z,62.19
2019-06-26T01:31:33.077Z,62.45
2019-06-26T01:34:02.988Z,62.27
2019-06-26T01:36:31.384Z,61.86
2019-06-26T01:38:59.913Z,61.48
2019-06-26T01:41:28.314Z,61.32
2019-06-26T01:43:56.708Z,61.20
2019-06-26T01:46:25.514Z,61.15
2019-06-26T01:48:53.890Z,61.13
2019-06-26T01:51:22.417Z,61.00
2019-06-26T01:53:50.993Z,60.90
2019-06-26T01:56:19.684Z,61.10
2019-06-26T01:58:48.084Z,60.95
2019-06-26T02:01:16.513Z,61.15
2019-06-26T02:03:44.922Z,61.40
2019-06-26T02:06:13.389Z,61.76
2019-06-26T02:08:41.833Z,61.78
2019-06-26T02:11:10.250Z,61.70
2019-06-26T02:13:38.635Z,61.45
2019-06-26T02:16:07.075Z,61.22
2019-06-26T02:18:46.357Z,60.38
2019-06-26T02:21:14.975Z,60.32
2019-06-26T02:23:43.418Z,60.28
2019-06-26T02:26:11.942Z,59.98
2019-06-26T02:28:40.391Z,59.63
2019-06-26T02:31:08.786Z,59.16
2019-06-26T02:33:37.200Z,58.98
2019-06-26T02:36:05.721Z,59.02
2019-06-26T02:38:34.122Z,59.12
2019-06-26T02:41:05.016Z,59.03
2019-06-26T02:43:33.514Z,58.85
2019-06-26T02:46:01.915Z,59.07
2019-06-26T02:48:30.313Z,59.32
2019-06-26T02:50:58.847Z,59.58
2019-06-26T02:53:27.341Z,59.60
2019-06-26T02:55:55.733Z,59.99
2019-06-26T02:58:24.234Z,60.10
2019-06-26T03:00:52.633Z,60.21
2019-06-26T03:03:21.106Z,60.28
2019-06-26T03:05:49.732Z,60.35
2019-06-26T03:08:18.198Z,60.27
2019-06-26T03:10:46.674Z,59.98
2019-06-26T03:13:15.361Z,60.01
2019-06-26T03:15:43.762Z,60.08
2019-06-26T03:18:12.233Z,60.30
2019-06-26T03:20:43.703Z,60.18
2019-06-26T03:23:12.110Z,60.02
2019-06-26T03:25:40.507Z,59.97
2019-06-26T03:28:08.944Z,59.84
2019-06-26T03:30:37.418Z,59.69
2019-06-26T03:33:05.809Z,59.57
2019-06-26T03:35:34.297Z,59.12
2019-06-26T03:38:02.699Z,58.84
2019-06-26T03:40:31.099Z,58.66
2019-06-26T03:42:59.610Z,58.79
2019-06-26T03:45:28.013Z,58.82
2019-06-26T03:47:56.417Z,58.78
2019-06-26T03:50:25.843Z,58.70
2019-06-26T03:52:54.361Z,58.75
2019-06-26T03:55:23.166Z,58.75
2019-06-26T03:57:51.656Z,58.78
2019-06-26T04:00:34.843Z,58.61
2019-06-26T04:03:03.274Z,58.65
2019-06-26T04:05:31.675Z,58.40
2019-06-26T04:08:00.074Z,58.04
2019-06-26T04:10:28.536Z,57.85
2019-06-26T04:12:56.990Z,57.84
2019-06-26T04:15:40.856Z,58.37
2019-06-26T04:17:55.490Z,58.68
2019-06-26T04:20:23.885Z,59.25
2019-06-26T04:22:52.285Z,58.58
2019-06-26T04:25:20.880Z,58.54
2019-06-26T04:27:49.353Z,58.28
2019-06-26T04:30:18.196Z,57.80
2019-06-26T04:32:46.695Z,57.88
2019-06-26T04:35:15.629Z,57.75
2019-06-26T04:37:44.057Z,57.56
2019-06-26T04:40:12.843Z,57.29
2019-06-26T04:42:41.281Z,56.95
2019-06-26T04:45:10.013Z,56.83
2019-06-26T04:47:38.451Z,56.59
2019-06-26T04:50:09.209Z,56.48
2019-06-26T04:52:37.603Z,57.03
2019-06-26T04:55:07.273Z,57.48
2019-06-26T04:57:35.795Z,57.66
2019-06-26T05:00:06.865Z,56.89
2019-06-26T05:02:35.275Z,55.66
2019-06-26T05:05:05.707Z,55.10
2019-06-26T05:07:34.172Z,54.30
2019-06-26T05:10:02.594Z,54.06
2019-06-26T05:12:31.057Z,54.10
2019-06-26T05:14:59.451Z,53.80
2019-06-26T05:17:27.983Z,53.39
2019-06-26T05:19:56.373Z,53.00
2019-06-26T05:22:24.782Z,52.78
2019-06-26T05:24:53.209Z,52.52
2019-06-26T05:27:21.610Z,52.31
2019-06-26T05:29:50.005Z,52.10
2019-06-26T05:32:18.447Z,51.90
2019-06-26T05:34:46.853Z,51.88
2019-06-26T05:37:15.251Z,51.81
2019-06-26T05:39:43.694Z,51.61
2019-06-26T05:42:12.133Z,51.49
2019-06-26T05:44:40.563Z,51.12
2019-06-26T05:47:08.989Z,51.16
2019-06-26T05:49:37.389Z,50.93
2019-06-26T05:52:05.790Z,50.67
2019-06-26T05:54:34.244Z,50.38
2019-06-26T05:57:02.710Z,50.32
2019-06-26T05:59:31.301Z,49.97
2019-06-26T06:01:59.823Z,49.96
2019-06-26T06:04:28.223Z,49.64
2019-06-26T06:06:56.664Z,49.97
2019-06-26T06:09:25.085Z,49.52
2019-06-26T06:11:53.485Z,49.24
2019-06-26T06:14:21.877Z,48.92
2019-06-26T06:16:50.398Z,48.80
2019-06-26T06:19:18.808Z,48.62
2019-06-26T06:21:47.209Z,48.58
2019-06-26T06:24:15.777Z,48.58
2019-06-26T06:26:44.234Z,48.40
2019-06-26T06:29:12.699Z,48.42
2019-06-26T06:31:41.129Z,47.98
2019-06-26T06:34:09.535Z,48.13
2019-06-26T06:36:37.937Z,47.81
2019-06-26T06:39:06.934Z,47.74
2019-06-26T06:41:37.052Z,47.63
2019-06-26T06:44:05.510Z,47.73
2019-06-26T06:46:34.124Z,47.31
2019-06-26T06:49:02.690Z,47.22
2019-06-26T06:51:31.091Z,47.10
2019-06-26T06:54:02.259Z,46.80
2019-06-26T06:56:30.653Z,47.00
2019-06-26T06:58:59.079Z,46.88
2019-06-26T07:01:27.485Z,46.67
2019-06-26T07:03:55.887Z,47.01
2019-06-26T07:06:25.794Z,46.94
2019-06-26T07:08:54.289Z,46.81
2019-06-26T07:11:22.762Z,46.56
2019-06-26T07:13:51.264Z,46.50
2019-06-26T07:16:19.691Z,46.39
2019-06-26T07:18:48.085Z,46.35
2019-06-26T07:21:16.483Z,46.17
2019-06-26T07:23:44.950Z,45.78
2019-06-26T07:26:13.585Z,45.98
2019-06-26T07:28:42.055Z,45.82
2019-06-26T07:31:10.473Z,45.47
2019-06-26T07:33:38.884Z,45.15
2019-06-26T07:36:07.383Z,45.25
2019-06-26T07:38:36.297Z,45.13
2019-06-26T07:41:04.841Z,45.16
2019-06-26T07:43:33.248Z,44.93
2019-06-26T07:46:01.680Z,44.72
2019-06-26T07:48:30.143Z,44.39
2019-06-26T07:50:58.597Z,44.46
2019-06-26T07:53:27.030Z,44.40
2019-06-26T07:55:55.457Z,44.13
2019-06-26T07:58:23.855Z,43.67
2019-06-26T08:00:52.301Z,43.37
2019-06-26T08:03:20.685Z,43.23
2019-06-26T08:05:49.127Z,43.29
2019-06-26T08:08:17.810Z,42.97
2019-06-26T08:10:46.219Z,43.04
2019-06-26T08:13:14.629Z,43.23
2019-06-26T08:15:43.039Z,43.23
2019-06-26T08:18:11.439Z,42.58
2019-06-26T08:20:55.130Z,42.48
2019-06-26T08:23:10.792Z,42.34
2019-06-26T08:25:39.174Z,42.35
2019-06-26T08:28:07.582Z,42.19
2019-06-26T08:30:36.017Z,42.16
2019-06-26T08:33:04.585Z,42.36
2019-06-26T08:35:32.981Z,41.77
2019-06-26T08:38:10.239Z,41.62
2019-06-26T08:40:31.729Z,41.00
2019-06-26T08:43:00.157Z,40.54
2019-06-26T08:45:28.764Z,39.36
2019-06-26T08:47:57.165Z,39.76
2019-06-26T08:50:25.641Z,39.74
2019-06-26T08:52:54.075Z,39.79
2019-06-26T08:55:22.480Z,39.74
2019-06-26T08:57:50.956Z,40.07
2019-06-26T09:00:20.038Z,40.22
2019-06-26T09:02:48.430Z,40.34
2019-06-26T09:05:17.870Z,39.43
2019-06-26T09:07:46.301Z,39.75
2019-06-26T09:10:14.936Z,39.80
2019-06-26T09:12:43.343Z,40.13
2019-06-26T09:15:12.038Z,40.67
2019-06-26T09:17:40.448Z,40.70
2019-06-26T09:20:10.685Z,40.14
2019-06-26T09:22:39.127Z,38.85
2019-06-26T09:25:20.985Z,38.70
2019-06-26T09:27:38.750Z,38.19
2019-06-26T09:30:09.323Z,38.73
2019-06-26T09:32:37.699Z,38.33
2019-06-26T09:35:07.066Z,38.19
2019-06-26T09:37:35.549Z,37.40
2019-06-26T09:40:05.721Z,37.37
2019-06-26T09:42:34.184Z,37.78
2019-06-26T09:45:02.635Z,38.25
2019-06-26T09:47:31.263Z,38.67
2019-06-26T09:49:59.701Z,39.08
2019-06-26T09:52:28.175Z,38.43
2019-06-26T09:54:56.586Z,39.14
2019-06-26T09:57:24.965Z,38.79
2019-06-26T09:59:53.538Z,38.66
2019-06-26T10:02:21.933Z,38.54
2019-06-26T10:04:50.350Z,38.16
2019-06-26T10:07:19.004Z,37.38
2019-06-26T10:09:47.471Z,37.54
2019-06-26T10:12:15.977Z,36.96
2019-06-26T10:14:47.896Z,37.01
2019-06-26T10:17:14.720Z,37.28
2019-06-26T10:19:43.127Z,37.77
2019-06-26T10:22:11.562Z,38.48
2019-06-26T10:24:39.966Z,38.58
2019-06-26T10:27:08.370Z,38.73
2019-06-26T10:29:36.806Z,37.77
2019-06-26T10:32:05.334Z,37.07
2019-06-26T10:34:33.743Z,36.65
2019-06-26T10:37:02.198Z,36.61
2019-06-26T10:39:30.610Z,36.27
2019-06-26T10:41:59.030Z,36.61
2019-06-26T10:44:27.446Z,35.92
2019-06-26T10:46:55.863Z,35.56
2019-06-26T10:49:27.401Z,34.36
2019-06-26T10:51:54.490Z,33.99
2019-06-26T10:54:22.938Z,33.39
2019-06-26T10:56:51.301Z,33.87
2019-06-26T10:59:19.841Z,33.85
2019-06-26T11:01:48.233Z,32.89
2019-06-26T11:04:16.625Z,33.04
2019-06-26T11:06:45.071Z,33.15
2019-06-26T11:09:13.471Z,32.51
2019-06-26T11:11:41.866Z,33.05
2019-06-26T11:14:10.299Z,32.89
2019-06-26T11:16:38.707Z,30.38
2019-06-26T11:19:07.200Z,30.60
2019-06-26T11:21:35.768Z,31.29
2019-06-26T11:24:04.230Z,30.66
2019-06-26T11:26:32.701Z,31.01
2019-06-26T11:29:01.135Z,30.91
2019-06-26T11:31:29.532Z,30.26
2019-06-26T11:33:57.930Z,30.06
2019-06-26T11:36:26.420Z,28.03
2019-06-26T11:38:54.867Z,29.02
2019-06-26T11:41:23.260Z,28.97
2019-06-26T11:43:51.697Z,28.50
2019-06-26T11:46:20.093Z,29.45
2019-06-26T11:48:48.494Z,29.48
2019-06-26T11:51:17.171Z,29.36
2019-06-26T11:53:45.561Z,30.17
2019-06-26T11:56:13.952Z,28.62
2019-06-26T11:58:42.544Z,27.91
2019-06-26T12:01:10.939Z,28.78
2019-06-26T12:03:39.451Z,29.42
2019-06-26T12:06:18.264Z,29.30
2019-06-26T12:08:37.981Z,28.79
2019-06-26T12:11:06.394Z,28.78
2019-06-26T12:13:34.818Z,28.62
2019-06-26T12:16:03.273Z,27.93
2019-06-26T12:18:31.673Z,28.14
2019-06-26T12:21:02.920Z,27.23
2019-06-26T12:23:31.311Z,25.33
2019-06-26T12:25:59.748Z,26.30
2019-06-26T12:28:28.263Z,25.77
2019-06-26T12:30:56.639Z,25.69
2019-06-26T12:33:25.043Z,26.20
2019-06-26T12:35:53.469Z,26.48
2019-06-26T12:38:21.919Z,26.73
2019-06-26T12:40:50.333Z,25.67
2019-06-26T12:43:18.766Z,23.80
2019-06-26T12:45:47.162Z,24.73
2019-06-26T12:48:16.495Z,25.06
2019-06-26T12:50:45.083Z,23.99
2019-06-26T12:53:13.477Z,24.67
2019-06-26T12:55:41.943Z,24.62
2019-06-26T12:58:14.127Z,24.37
2019-06-26T13:00:40.560Z,24.13
2019-06-26T13:03:08.963Z,25.05
2019-06-26T13:05:37.569Z,25.38
2019-06-26T13:08:06.103Z,22.59
2019-06-26T13:10:48.440Z,22.20
2019-06-26T13:13:04.756Z,21.10
2019-06-26T13:15:33.161Z,22.15
2019-06-26T13:18:01.671Z,21.11
2019-06-26T13:20:30.063Z,21.51
2019-06-26T13:22:58.502Z,21.88
2019-06-26T13:25:26.862Z,21.30
2019-06-26T13:27:55.363Z,22.37
2019-06-26T13:30:29.814Z,22.27
2019-06-26T13:32:58.205Z,23.03
2019-06-26T13:35:26.647Z,24.26
2019-06-26T13:37:55.019Z,23.09
2019-06-26T13:40:23.427Z,23.09
2019-06-26T13:42:52.019Z,22.74
2019-06-26T13:45:20.417Z,23.20
2019-06-26T13:47:48.815Z,23.60
2019-06-26T13:50:18.065Z,23.39
2019-06-26T13:52:46.478Z,23.23
2019-06-26T13:55:14.938Z,22.84
2019-06-26T13:57:43.371Z,22.68
2019-06-26T14:00:12.696Z,22.29
2019-06-26T14:02:41.101Z,23.12
2019-06-26T14:05:10.613Z,21.94
2019-06-26T14:07:39.086Z,22.41
2019-06-26T14:10:08.021Z,22.62
2019-06-26T14:12:36.593Z,23.01
2019-06-26T14:15:08.664Z,22.60
2019-06-26T14:17:37.096Z,22.05
2019-06-26T14:20:07.047Z,21.73
2019-06-26T14:22:35.448Z,21.92
2019-06-26T14:25:05.688Z,22.45
2019-06-26T14:27:34.117Z,22.93
2019-06-26T14:30:02.522Z,21.28
2019-06-26T14:32:30.993Z,23.30
2019-06-26T14:34:59.439Z,21.28
2019-06-26T14:37:28.773Z,21.72
2019-06-26T14:39:57.170Z,22.42
2019-06-26T14:42:25.623Z,22.84
2019-06-26T14:44:54.019Z,23.10
2019-06-26T14:47:22.758Z,22.33
2019-06-26T14:49:51.193Z,22.94
2019-06-26T14:52:19.766Z,23.19
2019-06-26T14:54:48.998Z,23.59
2019-06-26T14:57:17.426Z,22.22
2019-06-26T14:59:45.820Z,22.82
2019-06-26T15:02:14.218Z,23.65
2019-06-26T15:04:46.012Z,23.01
2019-06-26T15:07:12.899Z,23.11
2019-06-26T15:09:41.368Z,21.97
2019-06-26T15:12:09.806Z,22.23
2019-06-26T15:14:38.236Z,22.79
2019-06-26T15:17:06.673Z,20.99
2019-06-26T15:19:35.121Z,22.20
2019-06-26T15:22:03.549Z,23.12
2019-06-26T15:24:31.954Z,22.74
2019-06-26T15:27:00.538Z,22.44
2019-06-26T15:29:28.936Z,22.26
2019-06-26T15:31:57.344Z,21.69
2019-06-26T15:34:26.375Z,22.52
2019-06-26T15:36:54.845Z,21.64
2019-06-26T15:39:23.248Z,21.91
2019-06-26T15:41:51.723Z,21.74
2019-06-26T15:44:20.125Z,20.61
2019-06-26T15:46:48.524Z,20.39
2019-06-26T15:49:17.482Z,19.34
2019-06-26T15:51:45.820Z,19.85
2019-06-26T15:54:14.226Z,21.00
2019-06-26T15:56:42.740Z,21.31
2019-06-26T15:59:11.136Z,20.88
2019-06-26T16:01:39.539Z,21.37
2019-06-26T16:04:07.971Z,22.41
2019-06-26T16:06:36.376Z,21.47
2019-06-26T16:09:06.929Z,21.48
2019-06-26T16:11:35.364Z,22.06
2019-06-26T16:14:03.780Z,21.83
2019-06-26T16:16:33.411Z,20.73
2019-06-26T16:19:06.807Z,19.21
2019-06-26T16:21:35.205Z,19.72
2019-06-26T16:24:03.892Z,19.61
2019-06-26T16:26:32.310Z,19.62
2019-06-26T16:29:00.712Z,20.11
2019-06-26T16:31:29.108Z,20.65
2019-06-26T16:33:57.830Z,20.86
2019-06-26T16:36:26.259Z,21.27
2019-06-26T16:38:54.641Z,21.35
2019-06-26T16:41:23.232Z,20.84
2019-06-26T16:43:51.632Z,21.04
2019-06-26T16:46:20.037Z,21.25
2019-06-26T16:48:48.465Z,21.52
2019-06-26T16:51:16.860Z,21.58
2019-06-26T16:53:45.265Z,21.43
2019-06-26T16:56:13.691Z,20.65
2019-06-26T16:58:42.084Z,20.00
2019-06-26T17:01:10.486Z,19.43
2019-06-26T17:03:40.590Z,19.49
2019-06-26T17:06:08.996Z,19.34
2019-06-26T17:08:37.443Z,19.75
2019-06-26T17:11:06.008Z,19.73
2019-06-26T17:13:34.365Z,19.36
2019-06-26T17:16:02.767Z,19.10
2019-06-26T17:18:31.190Z,19.42
2019-06-26T17:20:59.593Z,19.27
2019-06-26T17:23:28.023Z,19.16
2019-06-26T17:25:56.463Z,19.27
2019-06-26T17:28:24.862Z,19.16
2019-06-26T17:30:53.265Z,18.79
2019-06-26T17:33:21.855Z,18.49
2019-06-26T17:35:50.308Z,18.66
2019-06-26T17:38:18.709Z,18.47
2019-06-26T17:40:47.157Z,18.29
2019-06-26T17:43:15.598Z,18.45
2019-06-26T17:45:44.070Z,18.43
2019-06-26T17:48:12.492Z,18.81
2019-06-26T17:50:40.888Z,19.56
2019-06-26T17:53:21.004Z,20.85
2019-06-26T17:55:41.588Z,22.99
2019-06-26T17:58:10.084Z,24.33
2019-06-26T18:00:38.622Z,25.01
2019-06-26T18:03:07.203Z,25.43
2019-06-26T18:05:35.670Z,26.25
2019-06-26T18:08:04.267Z,26.60
2019-06-26T18:10:32.724Z,26.58
2019-06-26T18:13:01.116Z,26.99
2019-06-26T18:15:29.592Z,27.13
2019-06-26T18:17:58.044Z,27.25
2019-06-26T18:20:26.451Z,27.29
2019-06-26T18:23:06.679Z,27.53
2019-06-26T18:25:25.278Z,27.70
2019-06-26T18:27:53.684Z,27.68
2019-06-26T18:30:22.859Z,27.58
2019-06-26T18:32:51.729Z,27.88
2019-06-26T18:35:20.377Z,28.17
2019-06-26T18:37:48.786Z,28.65
2019-06-26T18:40:18.255Z,29.08
2019-06-26T18:42:46.652Z,29.41
2019-06-26T18:45:15.192Z,30.13
2019-06-26T18:47:43.662Z,29.96
2019-06-26T18:50:12.336Z,30.89
2019-06-26T18:52:40.747Z,32.75
2019-06-26T18:55:10.385Z,35.07
2019-06-26T18:57:38.780Z,35.67
2019-06-26T19:00:08.931Z,36.82
2019-06-26T19:02:37.537Z,37.89
2019-06-26T19:05:07.939Z,38.41
2019-06-26T19:07:36.483Z,38.92
2019-06-26T19:10:09.332Z,38.49
2019-06-26T19:12:37.787Z,38.03
2019-06-26T19:15:06.762Z,37.35
2019-06-26T19:17:35.555Z,36.63
2019-06-26T19:20:05.981Z,36.57
2019-06-26T19:22:34.394Z,35.53
2019-06-26T19:25:03.019Z,35.08
2019-06-26T19:27:31.388Z,35.21
2019-06-26T19:29:59.871Z,35.48
2019-06-26T19:32:28.293Z,35.17
2019-06-26T19:34:56.703Z,35.40
2019-06-26T19:37:25.177Z,35.35
2019-06-26T19:39:53.613Z,35.59
2019-06-26T19:42:22.015Z,34.77
2019-06-26T19:44:50.487Z,34.13
2019-06-26T19:47:18.928Z,34.62
2019-06-26T19:49:47.338Z,35.21
2019-06-26T19:52:15.743Z,35.21
2019-06-26T19:54:44.242Z,35.41
2019-06-26T19:57:12.646Z,36.83
2019-06-26T19:59:41.119Z,37.61
2019-06-26T20:02:09.593Z,37.42
2019-06-26T20:04:38.013Z,37.24
2019-06-26T20:07:06.415Z,37.17
2019-06-26T20:09:34.927Z,36.51
2019-06-26T20:12:03.332Z,36.56
2019-06-26T20:14:31.732Z,36.67
2019-06-26T20:17:00.170Z,36.92
2019-06-26T20:19:28.565Z,37.32
2019-06-26T20:21:56.973Z,37.40
2019-06-26T20:24:25.409Z,37.15
2019-06-26T20:26:53.808Z,36.62
2019-06-26T20:29:22.240Z,36.32
2019-06-26T20:31:50.780Z,35.67
2019-06-26T20:34:19.279Z,35.65
2019-06-26T20:36:50.451Z,35.59
2019-06-26T20:39:18.993Z,35.48
2019-06-26T20:41:47.392Z,35.62
2019-06-26T20:44:15.792Z,36.21
2019-06-26T20:46:44.225Z,36.68
2019-06-26T20:49:12.626Z,37.56
2019-06-26T20:51:41.036Z,38.15
2019-06-26T20:54:09.597Z,38.45
2019-06-26T20:56:38.065Z,38.84
2019-06-26T20:59:06.470Z,38.51
2019-06-26T21:01:34.886Z,38.37
2019-06-26T21:04:03.297Z,38.72
2019-06-26T21:06:31.692Z,38.18
2019-06-26T21:09:00.200Z,37.50
2019-06-26T21:11:28.598Z,37.30
2019-06-26T21:13:57.006Z,36.85
2019-06-26T21:16:25.445Z,37.02
2019-06-26T21:18:53.850Z,37.67
2019-06-26T21:21:22.248Z,37.83
2019-06-26T21:23:50.818Z,38.27
2019-06-26T21:26:19.232Z,38.39
2019-06-26T21:28:47.699Z,38.42
2019-06-26T21:31:16.197Z,38.46
2019-06-26T21:33:44.597Z,38.29
2019-06-26T21:36:12.996Z,38.11
2019-06-26T21:38:41.450Z,38.29
2019-06-26T21:41:09.854Z,38.25
2019-06-26T21:43:38.255Z,38.38
2019-06-26T21:46:06.693Z,38.43
2019-06-26T21:48:35.092Z,38.41
2019-06-26T21:51:03.495Z,38.61
2019-06-26T21:53:32.082Z,38.72
2019-06-26T21:56:00.492Z,38.93
2019-06-26T21:58:28.890Z,39.01
2019-06-26T22:00:57.394Z,39.18
2019-06-26T22:03:25.796Z,39.41
2019-06-26T22:05:54.440Z,39.50
2019-06-26T22:08:23.535Z,39.58
2019-06-26T22:10:51.995Z,39.65
2019-06-26T22:13:20.410Z,39.80
2019-06-26T22:15:48.848Z,39.97
2019-06-26T22:18:17.270Z,40.18
2019-06-26T22:20:45.729Z,40.23
2019-06-26T22:23:14.367Z,40.42
2019-06-26T22:25:50.713Z,40.67
2019-06-26T22:28:13.362Z,40.74
2019-06-26T22:30:42.164Z,41.27
2019-06-26T22:33:10.579Z,41.62
2019-06-26T22:35:38.979Z,42.17
2019-06-26T22:38:07.479Z,42.28
2019-06-26T22:40:35.930Z,42.22
2019-06-26T22:43:04.388Z,42.48
2019-06-26T22:45:32.999Z,42.57
2019-06-26T22:48:01.398Z,42.44
2019-06-26T22:50:29.802Z,43.23
2019-06-26T22:52:58.246Z,43.40
2019-06-26T22:55:26.648Z,43.69
2019-06-26T22:57:55.096Z,43.99
2019-06-26T23:00:23.721Z,44.49
2019-06-26T23:02:52.135Z,44.31
2019-06-26T23:05:20.591Z,43.82
2019-06-26T23:07:49.014Z,43.83
2019-06-26T23:10:18.632Z,43.86
2019-06-26T23:12:47.119Z,43.71
2019-06-26T23:15:16.110Z,43.62
2019-06-26T23:17:44.504Z,43.50
2019-06-26T23:20:13.072Z,43.46
2019-06-26T23:22:41.535Z,43.47
2019-06-26T23:25:10.573Z,43.47
2019-06-26T23:27:38.976Z,43.47
2019-06-26T23:30:18.072Z,43.17
2019-06-26T23:32:46.705Z,43.16
2019-06-26T23:35:15.345Z,43.15
2019-06-26T23:37:43.824Z,43.26
2019-06-26T23:40:12.832Z,43.23
2019-06-26T23:42:41.246Z,43.08
2019-06-26T23:45:09.846Z,42.97
2019-06-26T23:47:38.246Z,42.90
2019-06-26T23:50:06.838Z,42.73
2019-06-26T23:52:35.278Z,43.06
2019-06-26T23:55:05.005Z,43.01
2019-06-26T23:57:33.409Z,43.04
